sensor_id;sensor_type;location;lat;lon;timestamp;P1;durP1;ratioP1;P2;durP2;ratioP2
57615;SDS011;43816;52.054;-9.494;2022-12-07T00:00:07;21.05;;;19.08;;
57615;SDS011;43816;52.054;-9.494;2022-12-07T00:00:17;20.90;;;18.93;;
57615;SDS011;43816;52.054;-9.494;2022-12-07T00:00:28;20.75;;;18.85;;
57615;SDS011;43816;52.054;-9.494;2022-12-07T00:00:38;21.10;;;19.17;;
57615;SDS011;43816;52.054;-9.494;2022-12-07T00:00:49;21.50;;;19.50;;
57615;SDS011;43816;52.054;-9.494;2022-12-07T00:01:15;21.40;;;19.40;;
57615;SDS011;43816;52.054;-9.494;2022-12-07T00:01:33;20.80;;;18.80;;
57615;SDS011;43816;52.054;-9.494;2022-12-07T00:01:45;20.63;;;18.63;;
57615;SDS011;43816;52.054;-9.494;2022-12-07T00:01:56;20.65;;;18.67;;
57615;SDS011;43816;52.054;-9.494;2022-12-07T00:02:06;20.80;;;18.90;;
57615;SDS011;43816;52.054;-9.494;2022-12-07T00:02:20;20.73;;;18.83;;
57615;SDS011;43816;52.054;-9.494;2022-12-07T00:02:33;20.98;;;19.00;;
57615;SDS011;43816;52.054;-9.494;2022-12-07T00:02:43;20.88;;;18.88;;
57615;SDS011;43816;52.054;-9.494;2022-12-07T00:02:53;20.93;;;18.93;;
57615;SDS011;43816;52.054;-9.494;2022-12-07T00:03:04;20.73;;;18.73;;
57615;SDS011;43816;52.054;-9.494;2022-12-07T00:03:17;20.65;;;18.65;;
57615;SDS011;43816;52.054;-9.494;2022-12-07T00:03:27;20.17;;;18.27;;
57615;SDS011;43816;52.054;-9.494;2022-12-07T00:03:38;20.17;;;18.27;;
57615;SDS011;43816;52.054;-9.494;2022-12-07T00:03:50;20.77;;;18.77;;
57615;SDS011;43816;52.054;-9.494;2022-12-07T00:04:02;20.67;;;18.67;;
57615;SDS011;43816;52.054;-9.494;2022-12-07T00:04:14;20.23;;;18.33;;
57615;SDS011;43816;52.054;-9.494;2022-12-07T00:04:26;20.05;;;18.15;;
57615;SDS011;43816;52.054;-9.494;2022-12-07T00:04:36;19.80;;;17.97;;
57615;SDS011;43816;52.054;-9.494;2022-12-07T00:04:48;20.60;;;18.60;;
57615;SDS011;43816;52.054;-9.494;2022-12-07T00:04:58;20.67;;;18.70;;
57615;SDS011;43816;52.054;-9.494;2022-12-07T00:05:12;20.83;;;18.92;;
57615;SDS011;43816;52.054;-9.494;2022-12-07T00:05:31;20.20;;;18.30;;
57615;SDS011;43816;52.054;-9.494;2022-12-07T00:05:41;20.00;;;18.10;;
57615;SDS011;43816;52.054;-9.494;2022-12-07T00:05:54;19.83;;;17.83;;
57615;SDS011;43816;52.054;-9.494;2022-12-07T00:06:08;20.10;;;18.10;;
57615;SDS011;43816;52.054;-9.494;2022-12-07T00:06:20;19.92;;;18.02;;
57615;SDS011;43816;52.054;-9.494;2022-12-07T00:06:31;19.85;;;17.95;;
57615;SDS011;43816;52.054;-9.494;2022-12-07T00:06:43;19.83;;;17.92;;
57615;SDS011;43816;52.054;-9.494;2022-12-07T00:06:56;19.88;;;17.98;;
57615;SDS011;43816;52.054;-9.494;2022-12-07T00:07:06;20.10;;;18.20;;
57615;SDS011;43816;52.054;-9.494;2022-12-07T00:07:16;19.80;;;18.00;;
57615;SDS011;43816;52.054;-9.494;2022-12-07T00:07:26;19.73;;;17.93;;
57615;SDS011;43816;52.054;-9.494;2022-12-07T00:07:37;19.33;;;17.60;;
57615;SDS011;43816;52.054;-9.494;2022-12-07T00:07:47;19.20;;;17.50;;
57615;SDS011;43816;52.054;-9.494;2022-12-07T00:07:57;19.30;;;17.60;;
57615;SDS011;43816;52.054;-9.494;2022-12-07T00:08:07;19.60;;;17.80;;
57615;SDS011;43816;52.054;-9.494;2022-12-07T00:08:21;19.80;;;17.92;;
57615;SDS011;43816;52.054;-9.494;2022-12-07T00:08:31;19.88;;;17.98;;
57615;SDS011;43816;52.054;-9.494;2022-12-07T00:08:45;19.60;;;17.77;;
57615;SDS011;43816;52.054;-9.494;2022-12-07T00:08:56;19.05;;;17.25;;
57615;SDS011;43816;52.054;-9.494;2022-12-07T00:09:09;18.90;;;17.08;;
57615;SDS011;43816;52.054;-9.494;2022-12-07T00:09:22;19.23;;;17.33;;
57615;SDS011;43816;52.054;-9.494;2022-12-07T00:09:32;19.20;;;17.30;;
57615;SDS011;43816;52.054;-9.494;2022-12-07T00:09:43;18.77;;;17.00;;
57615;SDS011;43816;52.054;-9.494;2022-12-07T00:09:53;18.87;;;17.10;;
57615;SDS011;43816;52.054;-9.494;2022-12-07T00:10:03;18.95;;;17.17;;
57615;SDS011;43816;52.054;-9.494;2022-12-07T00:10:14;19.02;;;17.23;;
57615;SDS011;43816;52.054;-9.494;2022-12-07T00:10:25;18.93;;;17.13;;
57615;SDS011;43816;52.054;-9.494;2022-12-07T00:10:35;18.95;;;17.13;;
57615;SDS011;43816;52.054;-9.494;2022-12-07T00:10:45;19.00;;;17.10;;
57615;SDS011;43816;52.054;-9.494;2022-12-07T00:11:00;19.07;;;17.27;;
57615;SDS011;43816;52.054;-9.494;2022-12-07T00:11:17;19.60;;;17.70;;
57615;SDS011;43816;52.054;-9.494;2022-12-07T00:11:28;19.48;;;17.67;;
57615;SDS011;43816;52.054;-9.494;2022-12-07T00:11:39;18.90;;;17.20;;
57615;SDS011;43816;52.054;-9.494;2022-12-07T00:11:50;18.92;;;17.23;;
57615;SDS011;43816;52.054;-9.494;2022-12-07T00:12:01;18.60;;;16.90;;
57615;SDS011;43816;52.054;-9.494;2022-12-07T00:12:11;18.83;;;17.03;;
57615;SDS011;43816;52.054;-9.494;2022-12-07T00:12:21;18.93;;;17.13;;
57615;SDS011;43816;52.054;-9.494;2022-12-07T00:12:32;19.50;;;17.60;;
57615;SDS011;43816;52.054;-9.494;2022-12-07T00:12:42;18.97;;;17.23;;
57615;SDS011;43816;52.054;-9.494;2022-12-07T00:12:52;18.40;;;16.70;;
57615;SDS011;43816;52.054;-9.494;2022-12-07T00:13:02;18.10;;;16.40;;
57615;SDS011;43816;52.054;-9.494;2022-12-07T00:13:13;18.47;;;16.73;;
57615;SDS011;43816;52.054;-9.494;2022-12-07T00:13:23;18.40;;;16.70;;
57615;SDS011;43816;52.054;-9.494;2022-12-07T00:13:33;18.33;;;16.63;;
57615;SDS011;43816;52.054;-9.494;2022-12-07T00:13:44;18.08;;;16.40;;
57615;SDS011;43816;52.054;-9.494;2022-12-07T00:13:56;18.47;;;16.70;;
57615;SDS011;43816;52.054;-9.494;2022-12-07T00:14:10;18.83;;;17.02;;
57615;SDS011;43816;52.054;-9.494;2022-12-07T00:14:22;18.88;;;17.08;;
57615;SDS011;43816;52.054;-9.494;2022-12-07T00:14:32;18.50;;;16.80;;
57615;SDS011;43816;52.054;-9.494;2022-12-07T00:14:52;18.67;;;16.90;;
57615;SDS011;43816;52.054;-9.494;2022-12-07T00:15:08;18.85;;;17.08;;
57615;SDS011;43816;52.054;-9.494;2022-12-07T00:15:19;18.55;;;16.85;;
57615;SDS011;43816;52.054;-9.494;2022-12-07T00:15:29;18.63;;;16.90;;
57615;SDS011;43816;52.054;-9.494;2022-12-07T00:15:39;18.50;;;16.80;;
57615;SDS011;43816;52.054;-9.494;2022-12-07T00:15:50;18.57;;;16.77;;
57615;SDS011;43816;52.054;-9.494;2022-12-07T00:16:22;18.17;;;16.42;;
57615;SDS011;43816;52.054;-9.494;2022-12-07T00:16:32;18.30;;;16.58;;
57615;SDS011;43816;52.054;-9.494;2022-12-07T00:16:44;18.48;;;16.68;;
57615;SDS011;43816;52.054;-9.494;2022-12-07T00:16:55;18.40;;;16.60;;
57615;SDS011;43816;52.054;-9.494;2022-12-07T00:17:05;17.80;;;16.10;;
57615;SDS011;43816;52.054;-9.494;2022-12-07T00:17:15;17.57;;;15.87;;
57615;SDS011;43816;52.054;-9.494;2022-12-07T00:17:25;17.60;;;15.90;;
57615;SDS011;43816;52.054;-9.494;2022-12-07T00:17:36;17.90;;;16.20;;
57615;SDS011;43816;52.054;-9.494;2022-12-07T00:17:46;18.10;;;16.40;;
57615;SDS011;43816;52.054;-9.494;2022-12-07T00:17:56;17.90;;;16.30;;
57615;SDS011;43816;52.054;-9.494;2022-12-07T00:18:09;17.67;;;16.08;;
57615;SDS011;43816;52.054;-9.494;2022-12-07T00:18:19;17.70;;;16.10;;
57615;SDS011;43816;52.054;-9.494;2022-12-07T00:18:30;17.87;;;16.27;;
57615;SDS011;43816;52.054;-9.494;2022-12-07T00:18:49;18.00;;;16.35;;
57615;SDS011;43816;52.054;-9.494;2022-12-07T00:19:00;18.20;;;16.50;;
57615;SDS011;43816;52.054;-9.494;2022-12-07T00:19:11;18.23;;;16.55;;
57615;SDS011;43816;52.054;-9.494;2022-12-07T00:19:22;17.90;;;16.20;;
57615;SDS011;43816;52.054;-9.494;2022-12-07T00:19:32;17.87;;;16.23;;
57615;SDS011;43816;52.054;-9.494;2022-12-07T00:19:43;18.17;;;16.47;;
57615;SDS011;43816;52.054;-9.494;2022-12-07T00:19:53;18.23;;;16.52;;
57615;SDS011;43816;52.054;-9.494;2022-12-07T00:20:04;18.23;;;16.53;;
57615;SDS011;43816;52.054;-9.494;2022-12-07T00:20:14;18.25;;;16.55;;
57615;SDS011;43816;52.054;-9.494;2022-12-07T00:20:25;18.27;;;16.57;;
57615;SDS011;43816;52.054;-9.494;2022-12-07T00:20:38;17.80;;;16.13;;
57615;SDS011;43816;52.054;-9.494;2022-12-07T00:20:48;17.20;;;15.60;;
57615;SDS011;43816;52.054;-9.494;2022-12-07T00:20:59;16.93;;;15.33;;
57615;SDS011;43816;52.054;-9.494;2022-12-07T00:21:25;17.88;;;16.17;;
57615;SDS011;43816;52.054;-9.494;2022-12-07T00:21:37;17.67;;;16.05;;
57615;SDS011;43816;52.054;-9.494;2022-12-07T00:21:48;17.85;;;16.15;;
57615;SDS011;43816;52.054;-9.494;2022-12-07T00:21:58;17.60;;;15.90;;
57615;SDS011;43816;52.054;-9.494;2022-12-07T00:22:08;17.90;;;16.20;;
57615;SDS011;43816;52.054;-9.494;2022-12-07T00:22:19;17.92;;;16.33;;
57615;SDS011;43816;52.054;-9.494;2022-12-07T00:22:32;17.93;;;16.33;;
57615;SDS011;43816;52.054;-9.494;2022-12-07T00:22:42;17.48;;;15.88;;
57615;SDS011;43816;52.054;-9.494;2022-12-07T00:22:55;17.13;;;15.57;;
57615;SDS011;43816;52.054;-9.494;2022-12-07T00:23:05;16.95;;;15.35;;
57615;SDS011;43816;52.054;-9.494;2022-12-07T00:23:16;17.00;;;15.40;;
57615;SDS011;43816;52.054;-9.494;2022-12-07T00:23:26;17.03;;;15.43;;
57615;SDS011;43816;52.054;-9.494;2022-12-07T00:23:40;17.02;;;15.45;;
57615;SDS011;43816;52.054;-9.494;2022-12-07T00:23:51;16.75;;;15.25;;
57615;SDS011;43816;52.054;-9.494;2022-12-07T00:24:03;16.85;;;15.32;;
57615;SDS011;43816;52.054;-9.494;2022-12-07T00:24:16;16.98;;;15.38;;
57615;SDS011;43816;52.054;-9.494;2022-12-07T00:24:27;16.93;;;15.33;;
57615;SDS011;43816;52.054;-9.494;2022-12-07T00:24:37;17.17;;;15.57;;
57615;SDS011;43816;52.054;-9.494;2022-12-07T00:24:47;17.60;;;15.90;;
57615;SDS011;43816;52.054;-9.494;2022-12-07T00:24:57;17.63;;;15.93;;
57615;SDS011;43816;52.054;-9.494;2022-12-07T00:25:08;17.40;;;15.80;;
57615;SDS011;43816;52.054;-9.494;2022-12-07T00:25:18;16.80;;;15.30;;
57615;SDS011;43816;52.054;-9.494;2022-12-07T00:25:29;16.63;;;15.10;;
57615;SDS011;43816;52.054;-9.494;2022-12-07T00:25:40;17.02;;;15.32;;
57615;SDS011;43816;52.054;-9.494;2022-12-07T00:25:50;17.37;;;15.60;;
57615;SDS011;43816;52.054;-9.494;2022-12-07T00:26:05;17.63;;;15.93;;
57615;SDS011;43816;52.054;-9.494;2022-12-07T00:26:38;17.17;;;15.50;;
57615;SDS011;43816;52.054;-9.494;2022-12-07T00:26:50;17.65;;;15.95;;
57615;SDS011;43816;52.054;-9.494;2022-12-07T00:27:01;17.53;;;15.87;;
57615;SDS011;43816;52.054;-9.494;2022-12-07T00:27:11;17.27;;;15.60;;
57615;SDS011;43816;52.054;-9.494;2022-12-07T00:27:21;16.95;;;15.27;;
57615;SDS011;43816;52.054;-9.494;2022-12-07T00:27:31;16.73;;;15.13;;
57615;SDS011;43816;52.054;-9.494;2022-12-07T00:27:42;16.40;;;14.90;;
57615;SDS011;43816;52.054;-9.494;2022-12-07T00:27:52;16.30;;;14.80;;
57615;SDS011;43816;52.054;-9.494;2022-12-07T00:28:03;16.08;;;14.57;;
57615;SDS011;43816;52.054;-9.494;2022-12-07T00:28:13;16.33;;;14.73;;
57615;SDS011;43816;52.054;-9.494;2022-12-07T00:28:24;16.27;;;14.67;;
57615;SDS011;43816;52.054;-9.494;2022-12-07T00:28:34;16.53;;;15.00;;
57615;SDS011;43816;52.054;-9.494;2022-12-07T00:28:48;16.48;;;14.98;;
57615;SDS011;43816;52.054;-9.494;2022-12-07T00:29:02;16.65;;;15.15;;
57615;SDS011;43816;52.054;-9.494;2022-12-07T00:29:16;16.52;;;15.02;;
57615;SDS011;43816;52.054;-9.494;2022-12-07T00:29:29;16.70;;;15.18;;
57615;SDS011;43816;52.054;-9.494;2022-12-07T00:29:39;16.57;;;14.97;;
57615;SDS011;43816;52.054;-9.494;2022-12-07T00:29:49;16.33;;;14.83;;
57615;SDS011;43816;52.054;-9.494;2022-12-07T00:30:00;16.23;;;14.73;;
57615;SDS011;43816;52.054;-9.494;2022-12-07T00:30:10;16.37;;;14.87;;
57615;SDS011;43816;52.054;-9.494;2022-12-07T00:30:21;16.47;;;14.97;;
57615;SDS011;43816;52.054;-9.494;2022-12-07T00:30:31;16.40;;;14.90;;
57615;SDS011;43816;52.054;-9.494;2022-12-07T00:30:42;16.43;;;14.93;;
57615;SDS011;43816;52.054;-9.494;2022-12-07T00:30:52;16.63;;;15.05;;
57615;SDS011;43816;52.054;-9.494;2022-12-07T00:31:14;16.35;;;14.85;;
57615;SDS011;43816;52.054;-9.494;2022-12-07T00:31:26;16.42;;;14.90;;
57615;SDS011;43816;52.054;-9.494;2022-12-07T00:31:38;16.50;;;15.00;;
57615;SDS011;43816;52.054;-9.494;2022-12-07T00:31:48;16.30;;;14.80;;
57615;SDS011;43816;52.054;-9.494;2022-12-07T00:31:59;15.73;;;14.33;;
57615;SDS011;43816;52.054;-9.494;2022-12-07T00:32:09;15.83;;;14.37;;
57615;SDS011;43816;52.054;-9.494;2022-12-07T00:32:19;15.52;;;14.13;;
57615;SDS011;43816;52.054;-9.494;2022-12-07T00:32:30;15.63;;;14.23;;
57615;SDS011;43816;52.054;-9.494;2022-12-07T00:32:40;15.47;;;14.07;;
57615;SDS011;43816;52.054;-9.494;2022-12-07T00:32:50;15.45;;;14.05;;
57615;SDS011;43816;52.054;-9.494;2022-12-07T00:33:00;15.77;;;14.37;;
57615;SDS011;43816;52.054;-9.494;2022-12-07T00:33:11;16.13;;;14.63;;
57615;SDS011;43816;52.054;-9.494;2022-12-07T00:33:21;16.55;;;15.05;;
57615;SDS011;43816;52.054;-9.494;2022-12-07T00:33:32;16.27;;;14.77;;
57615;SDS011;43816;52.054;-9.494;2022-12-07T00:33:43;16.02;;;14.52;;
57615;SDS011;43816;52.054;-9.494;2022-12-07T00:33:53;15.75;;;14.25;;
57615;SDS011;43816;52.054;-9.494;2022-12-07T00:34:04;15.73;;;14.23;;
57615;SDS011;43816;52.054;-9.494;2022-12-07T00:34:21;15.82;;;14.32;;
57615;SDS011;43816;52.054;-9.494;2022-12-07T00:34:32;15.55;;;14.05;;
57615;SDS011;43816;52.054;-9.494;2022-12-07T00:34:42;15.33;;;13.83;;
57615;SDS011;43816;52.054;-9.494;2022-12-07T00:34:52;15.87;;;14.30;;
57615;SDS011;43816;52.054;-9.494;2022-12-07T00:35:03;16.37;;;14.77;;
57615;SDS011;43816;52.054;-9.494;2022-12-07T00:35:13;16.53;;;14.93;;
57615;SDS011;43816;52.054;-9.494;2022-12-07T00:35:24;16.08;;;14.57;;
57615;SDS011;43816;52.054;-9.494;2022-12-07T00:35:34;16.10;;;14.60;;
57615;SDS011;43816;52.054;-9.494;2022-12-07T00:35:44;15.80;;;14.30;;
57615;SDS011;43816;52.054;-9.494;2022-12-07T00:35:55;15.70;;;14.25;;
57615;SDS011;43816;52.054;-9.494;2022-12-07T00:36:08;15.45;;;14.05;;
57615;SDS011;43816;52.054;-9.494;2022-12-07T00:36:21;15.23;;;13.88;;
57615;SDS011;43816;52.054;-9.494;2022-12-07T00:36:32;15.63;;;14.23;;
57615;SDS011;43816;52.054;-9.494;2022-12-07T00:36:43;15.63;;;14.23;;
57615;SDS011;43816;52.054;-9.494;2022-12-07T00:36:53;16.20;;;14.70;;
57615;SDS011;43816;52.054;-9.494;2022-12-07T00:37:03;15.87;;;14.37;;
57615;SDS011;43816;52.054;-9.494;2022-12-07T00:37:14;16.13;;;14.63;;
57615;SDS011;43816;52.054;-9.494;2022-12-07T00:37:24;15.60;;;14.20;;
57615;SDS011;43816;52.054;-9.494;2022-12-07T00:37:34;15.70;;;14.30;;
57615;SDS011;43816;52.054;-9.494;2022-12-07T00:37:44;15.73;;;14.27;;
57615;SDS011;43816;52.054;-9.494;2022-12-07T00:37:55;16.03;;;14.53;;
57615;SDS011;43816;52.054;-9.494;2022-12-07T00:38:05;16.15;;;14.65;;
57615;SDS011;43816;52.054;-9.494;2022-12-07T00:38:15;16.07;;;14.57;;
57615;SDS011;43816;52.054;-9.494;2022-12-07T00:38:27;15.80;;;14.40;;
57615;SDS011;43816;52.054;-9.494;2022-12-07T00:38:42;15.45;;;14.00;;
57615;SDS011;43816;52.054;-9.494;2022-12-07T00:38:52;15.50;;;14.00;;
57615;SDS011;43816;52.054;-9.494;2022-12-07T00:39:07;15.15;;;13.70;;
57615;SDS011;43816;52.054;-9.494;2022-12-07T00:39:17;15.10;;;13.70;;
57615;SDS011;43816;52.054;-9.494;2022-12-07T00:39:27;15.20;;;13.80;;
57615;SDS011;43816;52.054;-9.494;2022-12-07T00:39:38;15.50;;;14.07;;
57615;SDS011;43816;52.054;-9.494;2022-12-07T00:39:48;15.50;;;14.00;;
57615;SDS011;43816;52.054;-9.494;2022-12-07T00:39:58;15.00;;;13.60;;
57615;SDS011;43816;52.054;-9.494;2022-12-07T00:40:09;14.93;;;13.53;;
57615;SDS011;43816;52.054;-9.494;2022-12-07T00:40:20;14.95;;;13.55;;
57615;SDS011;43816;52.054;-9.494;2022-12-07T00:40:30;15.03;;;13.57;;
57615;SDS011;43816;52.054;-9.494;2022-12-07T00:40:40;15.13;;;13.63;;
57615;SDS011;43816;52.054;-9.494;2022-12-07T00:40:57;15.27;;;13.88;;
57615;SDS011;43816;52.054;-9.494;2022-12-07T00:41:12;15.43;;;14.02;;
57615;SDS011;43816;52.054;-9.494;2022-12-07T00:41:26;14.75;;;13.40;;
57615;SDS011;43816;52.054;-9.494;2022-12-07T00:41:37;14.55;;;13.25;;
57615;SDS011;43816;52.054;-9.494;2022-12-07T00:41:47;14.60;;;13.30;;
57615;SDS011;43816;52.054;-9.494;2022-12-07T00:41:57;14.73;;;13.43;;
57615;SDS011;43816;52.054;-9.494;2022-12-07T00:42:08;14.47;;;13.17;;
57615;SDS011;43816;52.054;-9.494;2022-12-07T00:42:18;14.38;;;13.00;;
57615;SDS011;43816;52.054;-9.494;2022-12-07T00:42:28;14.67;;;13.27;;
57615;SDS011;43816;52.054;-9.494;2022-12-07T00:42:38;14.60;;;13.20;;
57615;SDS011;43816;52.054;-9.494;2022-12-07T00:42:49;14.77;;;13.43;;
57615;SDS011;43816;52.054;-9.494;2022-12-07T00:42:59;14.63;;;13.33;;
57615;SDS011;43816;52.054;-9.494;2022-12-07T00:43:09;14.87;;;13.57;;
57615;SDS011;43816;52.054;-9.494;2022-12-07T00:43:19;14.80;;;13.50;;
57615;SDS011;43816;52.054;-9.494;2022-12-07T00:43:30;14.68;;;13.38;;
57615;SDS011;43816;52.054;-9.494;2022-12-07T00:43:41;14.40;;;13.10;;
57615;SDS011;43816;52.054;-9.494;2022-12-07T00:43:53;14.15;;;12.85;;
57615;SDS011;43816;52.054;-9.494;2022-12-07T00:44:03;13.63;;;12.43;;
57615;SDS011;43816;52.054;-9.494;2022-12-07T00:44:14;13.70;;;12.50;;
57615;SDS011;43816;52.054;-9.494;2022-12-07T00:44:24;13.87;;;12.67;;
57615;SDS011;43816;52.054;-9.494;2022-12-07T00:44:34;14.40;;;13.10;;
57615;SDS011;43816;52.054;-9.494;2022-12-07T00:44:44;14.10;;;12.80;;
57615;SDS011;43816;52.054;-9.494;2022-12-07T00:44:55;14.30;;;13.00;;
57615;SDS011;43816;52.054;-9.494;2022-12-07T00:45:05;14.30;;;13.00;;
57615;SDS011;43816;52.054;-9.494;2022-12-07T00:45:16;14.52;;;13.13;;
57615;SDS011;43816;52.054;-9.494;2022-12-07T00:45:26;14.05;;;12.75;;
57615;SDS011;43816;52.054;-9.494;2022-12-07T00:45:36;13.93;;;12.63;;
57615;SDS011;43816;52.054;-9.494;2022-12-07T00:45:47;14.53;;;13.13;;
57615;SDS011;43816;52.054;-9.494;2022-12-07T00:45:57;14.37;;;13.07;;
57615;SDS011;43816;52.054;-9.494;2022-12-07T00:46:08;14.27;;;12.98;;
57615;SDS011;43816;52.054;-9.494;2022-12-07T00:46:19;13.80;;;12.60;;
57615;SDS011;43816;52.054;-9.494;2022-12-07T00:46:33;13.86;;;12.64;;
57615;SDS011;43816;52.054;-9.494;2022-12-07T00:46:43;14.03;;;12.73;;
57615;SDS011;43816;52.054;-9.494;2022-12-07T00:46:53;14.47;;;13.17;;
57615;SDS011;43816;52.054;-9.494;2022-12-07T00:47:04;14.30;;;13.00;;
57615;SDS011;43816;52.054;-9.494;2022-12-07T00:47:14;14.03;;;12.73;;
57615;SDS011;43816;52.054;-9.494;2022-12-07T00:47:24;13.70;;;12.40;;
57615;SDS011;43816;52.054;-9.494;2022-12-07T00:47:35;13.73;;;12.43;;
57615;SDS011;43816;52.054;-9.494;2022-12-07T00:47:45;13.97;;;12.67;;
57615;SDS011;43816;52.054;-9.494;2022-12-07T00:47:55;14.03;;;12.73;;
57615;SDS011;43816;52.054;-9.494;2022-12-07T00:48:05;14.40;;;13.10;;
57615;SDS011;43816;52.054;-9.494;2022-12-07T00:48:16;14.13;;;12.83;;
57615;SDS011;43816;52.054;-9.494;2022-12-07T00:48:26;13.97;;;12.67;;
57615;SDS011;43816;52.054;-9.494;2022-12-07T00:48:37;13.93;;;12.63;;
57615;SDS011;43816;52.054;-9.494;2022-12-07T00:48:47;13.67;;;12.47;;
57615;SDS011;43816;52.054;-9.494;2022-12-07T00:48:58;13.70;;;12.50;;
57615;SDS011;43816;52.054;-9.494;2022-12-07T00:49:09;13.40;;;12.20;;
57615;SDS011;43816;52.054;-9.494;2022-12-07T00:49:19;13.40;;;12.20;;
57615;SDS011;43816;52.054;-9.494;2022-12-07T00:49:29;13.40;;;12.20;;
57615;SDS011;43816;52.054;-9.494;2022-12-07T00:49:40;13.73;;;12.43;;
57615;SDS011;43816;52.054;-9.494;2022-12-07T00:49:50;13.80;;;12.50;;
57615;SDS011;43816;52.054;-9.494;2022-12-07T00:50:00;13.77;;;12.43;;
57615;SDS011;43816;52.054;-9.494;2022-12-07T00:50:10;13.30;;;12.00;;
57615;SDS011;43816;52.054;-9.494;2022-12-07T00:50:21;13.10;;;11.90;;
57615;SDS011;43816;52.054;-9.494;2022-12-07T00:50:31;13.10;;;11.90;;
57615;SDS011;43816;52.054;-9.494;2022-12-07T00:50:41;13.65;;;12.45;;
57615;SDS011;43816;52.054;-9.494;2022-12-07T00:50:52;13.97;;;12.70;;
57615;SDS011;43816;52.054;-9.494;2022-12-07T00:51:02;14.18;;;12.88;;
57615;SDS011;43816;52.054;-9.494;2022-12-07T00:51:14;13.85;;;12.65;;
57615;SDS011;43816;52.054;-9.494;2022-12-07T00:51:25;13.38;;;12.18;;
57615;SDS011;43816;52.054;-9.494;2022-12-07T00:51:35;13.25;;;12.05;;
57615;SDS011;43816;52.054;-9.494;2022-12-07T00:51:47;13.07;;;11.87;;
57615;SDS011;43816;52.054;-9.494;2022-12-07T00:51:58;13.15;;;11.95;;
57615;SDS011;43816;52.054;-9.494;2022-12-07T00:52:08;13.13;;;11.93;;
57615;SDS011;43816;52.054;-9.494;2022-12-07T00:52:18;13.33;;;12.10;;
57615;SDS011;43816;52.054;-9.494;2022-12-07T00:52:29;13.15;;;11.95;;
57615;SDS011;43816;52.054;-9.494;2022-12-07T00:52:39;13.10;;;11.90;;
57615;SDS011;43816;52.054;-9.494;2022-12-07T00:52:49;13.23;;;12.03;;
57615;SDS011;43816;52.054;-9.494;2022-12-07T00:52:59;13.23;;;12.03;;
57615;SDS011;43816;52.054;-9.494;2022-12-07T00:53:10;12.97;;;11.83;;
57615;SDS011;43816;52.054;-9.494;2022-12-07T00:53:20;12.60;;;11.50;;
57615;SDS011;43816;52.054;-9.494;2022-12-07T00:53:31;13.00;;;11.80;;
57615;SDS011;43816;52.054;-9.494;2022-12-07T00:53:44;13.32;;;12.13;;
57615;SDS011;43816;52.054;-9.494;2022-12-07T00:53:55;13.27;;;12.07;;
57615;SDS011;43816;52.054;-9.494;2022-12-07T00:54:05;13.03;;;11.83;;
57615;SDS011;43816;52.054;-9.494;2022-12-07T00:54:15;13.32;;;12.05;;
57615;SDS011;43816;52.054;-9.494;2022-12-07T00:54:25;13.50;;;12.20;;
57615;SDS011;43816;52.054;-9.494;2022-12-07T00:54:36;13.30;;;12.10;;
57615;SDS011;43816;52.054;-9.494;2022-12-07T00:54:46;12.97;;;11.83;;
57615;SDS011;43816;52.054;-9.494;2022-12-07T00:54:56;13.13;;;11.93;;
57615;SDS011;43816;52.054;-9.494;2022-12-07T00:55:07;13.03;;;11.83;;
57615;SDS011;43816;52.054;-9.494;2022-12-07T00:55:17;12.93;;;11.73;;
57615;SDS011;43816;52.054;-9.494;2022-12-07T00:55:28;12.87;;;11.67;;
57615;SDS011;43816;52.054;-9.494;2022-12-07T00:55:38;13.00;;;11.80;;
57615;SDS011;43816;52.054;-9.494;2022-12-07T00:55:49;13.30;;;12.10;;
57615;SDS011;43816;52.054;-9.494;2022-12-07T00:56:04;13.07;;;11.88;;
57615;SDS011;43816;52.054;-9.494;2022-12-07T00:56:31;13.38;;;12.18;;
57615;SDS011;43816;52.054;-9.494;2022-12-07T00:56:41;12.83;;;11.73;;
57615;SDS011;43816;52.054;-9.494;2022-12-07T00:56:52;12.80;;;11.70;;
57615;SDS011;43816;52.054;-9.494;2022-12-07T00:57:02;13.00;;;11.80;;
57615;SDS011;43816;52.054;-9.494;2022-12-07T00:57:12;13.27;;;11.97;;
57615;SDS011;43816;52.054;-9.494;2022-12-07T00:57:23;13.15;;;11.95;;
57615;SDS011;43816;52.054;-9.494;2022-12-07T00:57:33;13.13;;;11.93;;
57615;SDS011;43816;52.054;-9.494;2022-12-07T00:57:43;13.27;;;12.03;;
57615;SDS011;43816;52.054;-9.494;2022-12-07T00:57:53;13.45;;;12.15;;
57615;SDS011;43816;52.054;-9.494;2022-12-07T00:58:04;13.37;;;12.07;;
57615;SDS011;43816;52.054;-9.494;2022-12-07T00:58:14;12.77;;;11.57;;
57615;SDS011;43816;52.054;-9.494;2022-12-07T00:58:24;12.40;;;11.30;;
57615;SDS011;43816;52.054;-9.494;2022-12-07T00:58:35;12.50;;;11.40;;
57615;SDS011;43816;52.054;-9.494;2022-12-07T00:58:56;12.52;;;11.43;;
57615;SDS011;43816;52.054;-9.494;2022-12-07T00:59:10;12.80;;;11.65;;
57615;SDS011;43816;52.054;-9.494;2022-12-07T00:59:23;13.02;;;11.82;;
57615;SDS011;43816;52.054;-9.494;2022-12-07T00:59:33;13.00;;;11.80;;
57615;SDS011;43816;52.054;-9.494;2022-12-07T00:59:43;12.53;;;11.43;;
57615;SDS011;43816;52.054;-9.494;2022-12-07T00:59:54;12.53;;;11.43;;
57615;SDS011;43816;52.054;-9.494;2022-12-07T01:00:04;12.52;;;11.43;;
57615;SDS011;43816;52.054;-9.494;2022-12-07T01:00:15;12.88;;;11.68;;
57615;SDS011;43816;52.054;-9.494;2022-12-07T01:00:25;12.70;;;11.50;;
57615;SDS011;43816;52.054;-9.494;2022-12-07T01:00:37;12.47;;;11.37;;
57615;SDS011;43816;52.054;-9.494;2022-12-07T01:00:48;12.43;;;11.32;;
57615;SDS011;43816;52.054;-9.494;2022-12-07T01:01:00;12.10;;;11.10;;
57615;SDS011;43816;52.054;-9.494;2022-12-07T01:01:12;12.10;;;11.02;;
57615;SDS011;43816;52.054;-9.494;2022-12-07T01:01:23;12.30;;;11.17;;
57615;SDS011;43816;52.054;-9.494;2022-12-07T01:01:36;12.32;;;11.15;;
57615;SDS011;43816;52.054;-9.494;2022-12-07T01:01:46;12.70;;;11.50;;
57615;SDS011;43816;52.054;-9.494;2022-12-07T01:01:56;12.68;;;11.48;;
57615;SDS011;43816;52.054;-9.494;2022-12-07T01:02:07;12.53;;;11.37;;
57615;SDS011;43816;52.054;-9.494;2022-12-07T01:02:17;12.73;;;11.60;;
57615;SDS011;43816;52.054;-9.494;2022-12-07T01:02:27;12.88;;;11.68;;
57615;SDS011;43816;52.054;-9.494;2022-12-07T01:02:38;12.80;;;11.60;;
57615;SDS011;43816;52.054;-9.494;2022-12-07T01:02:48;12.53;;;11.37;;
57615;SDS011;43816;52.054;-9.494;2022-12-07T01:02:58;12.38;;;11.27;;
57615;SDS011;43816;52.054;-9.494;2022-12-07T01:03:10;12.40;;;11.30;;
57615;SDS011;43816;52.054;-9.494;2022-12-07T01:03:22;12.50;;;11.38;;
57615;SDS011;43816;52.054;-9.494;2022-12-07T01:03:32;12.83;;;11.63;;
57615;SDS011;43816;52.054;-9.494;2022-12-07T01:03:42;13.02;;;11.82;;
57615;SDS011;43816;52.054;-9.494;2022-12-07T01:03:53;12.77;;;11.67;;
57615;SDS011;43816;52.054;-9.494;2022-12-07T01:04:03;12.52;;;11.43;;
57615;SDS011;43816;52.054;-9.494;2022-12-07T01:04:14;12.40;;;11.30;;
57615;SDS011;43816;52.054;-9.494;2022-12-07T01:04:24;12.43;;;11.30;;
57615;SDS011;43816;52.054;-9.494;2022-12-07T01:04:34;12.50;;;11.30;;
57615;SDS011;43816;52.054;-9.494;2022-12-07T01:04:45;12.40;;;11.27;;
57615;SDS011;43816;52.054;-9.494;2022-12-07T01:04:55;12.37;;;11.20;;
57615;SDS011;43816;52.054;-9.494;2022-12-07T01:05:06;12.37;;;11.27;;
57615;SDS011;43816;52.054;-9.494;2022-12-07T01:05:16;12.32;;;11.23;;
57615;SDS011;43816;52.054;-9.494;2022-12-07T01:05:27;12.47;;;11.37;;